KIDA

Idaho Falls Regional Airport

Idaho Falls, Idaho, USA
METAR KIDA 231053Z AUTO 17005KT 10SM -RA OVC060 12/09 A2995 RMK AO2 RAB21 SLP107 P0000 T01220094
Observed Flight Rules
May-23 @ 10:53 UTC (23 minutes ago) Visual Flight Rules
Wind Visibility Clouds Conditions
170° at 5 knots 10 miles
  • Overcast at 6,000' AGL
  • Light Rain
Temperatures Readings Precipitation
Current 12°C / 54°F
Dewpoint 9°C / 48°F
Humidity 82%
Altimeter 29.95" Hg
Pressure 1010.7 hPa
Elevation 1453
Current Rain 0.005
METAR KIDA 231053Z AUTO 17005KT 10SM -RA OVC060 12/09 A2995 RMK AO2 RAB21 SLP107 P0000 T01220094
Observed Flight Rules
May-23 @ 10:53 UTC
(23 minutes ago)
VFR
Wind Visibility
170° at 5 knots 10 miles
Clouds
  • Overcast at 6,000' AGL
Conditions
  • Light Rain
Temperature Dewpoint
12°C / 54°F 9°C / 48°F
Humidity Altimeter Pressure
82% 29.95" Hg 1010.7 hPa
Current Rain
0.005